createdAt,value
2014-10-02T00:00:25.393Z,74.56
2014-10-02T00:01:30.082Z,73.72
2014-10-02T00:02:35.053Z,72.18
2014-10-02T00:03:39.743Z,71.44
2014-10-02T00:04:44.418Z,71.06
2014-10-02T00:05:49.106Z,70.84
2014-10-02T00:06:53.780Z,71.03
2014-10-02T00:07:58.766Z,71.71
2014-10-02T00:09:03.440Z,71.24
2014-10-02T00:10:08.130Z,70.83
2014-10-02T00:11:12.805Z,71.07
2014-10-02T00:12:17.494Z,71.72
2014-10-02T00:13:22.167Z,71.75
2014-10-02T00:14:26.872Z,70.91
2014-10-02T00:15:31.547Z,70.44
2014-10-02T00:16:36.236Z,71
2014-10-02T00:17:41.207Z,72.89
2014-10-02T00:18:45.897Z,73.11
2014-10-02T00:19:50.572Z,73.29
2014-10-02T00:20:55.260Z,73.36
2014-10-02T00:22:00.231Z,73.62
2014-10-02T00:23:05.217Z,74.01
2014-10-02T00:24:09.891Z,74.05
2014-10-02T00:25:14.877Z,73.89
2014-10-02T00:26:19.552Z,74.06
2014-10-02T00:27:24.539Z,74.62
2014-10-02T00:28:29.213Z,74.83
2014-10-02T00:29:33.902Z,74.62
2014-10-02T00:30:38.576Z,74.62
2014-10-02T00:31:43.561Z,74.41
2014-10-02T00:32:48.236Z,73.13
2014-10-02T00:33:52.926Z,72.59
2014-10-02T00:34:57.601Z,72.22
2014-10-02T00:36:02.289Z,72.46
2014-10-02T00:37:06.963Z,71.87
2014-10-02T00:38:11.652Z,72.92
2014-10-02T00:39:16.327Z,74.08
2014-10-02T00:40:21.017Z,73.73
2014-10-02T00:41:25.690Z,73.93
2014-10-02T00:42:30.380Z,74.01
2014-10-02T00:43:35.350Z,74.09
2014-10-02T00:44:40.024Z,74.38
2014-10-02T00:45:44.714Z,74.49
2014-10-02T00:46:49.388Z,74.48
2014-10-02T00:47:54.078Z,74.26
2014-10-02T00:48:58.752Z,74.46
2014-10-02T00:50:03.441Z,74.51
2014-10-02T00:51:08.115Z,74.79
2014-10-02T00:52:12.804Z,73.74
2014-10-02T00:53:17.478Z,73.51
2014-10-02T00:54:22.465Z,74.21
2014-10-02T00:55:27.140Z,74.16
2014-10-02T00:56:31.829Z,74.32
2014-10-02T00:57:36.799Z,74.54
2014-10-02T00:58:41.473Z,74.52
2014-10-02T00:59:46.163Z,74.71
2014-10-02T01:00:50.837Z,75.06
2014-10-02T01:01:55.823Z,74.87
2014-10-02T01:03:00.497Z,74.8
2014-10-02T01:04:05.187Z,74.74
2014-10-02T01:05:09.861Z,74.82
2014-10-02T01:06:14.536Z,74.76
2014-10-02T01:07:19.224Z,74.59
2014-10-02T01:08:24.211Z,74.65
2014-10-02T01:09:28.900Z,74.86
2014-10-02T01:10:33.574Z,74.95
2014-10-02T01:11:38.263Z,75.64
2014-10-02T01:12:42.938Z,76.07
2014-10-02T01:13:47.925Z,74.88
2014-10-02T01:14:52.598Z,73.51
2014-10-02T01:15:57.288Z,72.58
2014-10-02T01:17:02.259Z,72.26
2014-10-02T01:18:06.261Z,72.05
2014-10-02T01:19:10.935Z,72.74
2014-10-02T01:20:15.624Z,72.23
2014-10-02T01:21:20.298Z,72.85
2014-10-02T01:22:24.987Z,73.52
2014-10-02T01:23:29.661Z,73.95
2014-10-02T01:24:34.648Z,74.48
2014-10-02T01:25:39.323Z,74.39
2014-10-02T01:26:44.012Z,74.5
2014-10-02T01:27:48.685Z,74.63
2014-10-02T01:28:53.656Z,74.7
2014-10-02T01:29:58.346Z,74.62
2014-10-02T01:31:03.020Z,75.04
2014-10-02T01:32:07.694Z,74.79
2014-10-02T01:33:12.383Z,74.66
2014-10-02T01:34:17.057Z,75.08
2014-10-02T01:35:21.747Z,75.38
2014-10-02T01:36:26.733Z,75.26
2014-10-02T01:37:31.407Z,75.34
2014-10-02T01:38:36.378Z,75.36
2014-10-02T01:39:41.365Z,75.46
2014-10-02T01:40:46.335Z,75.32
2014-10-02T01:41:51.322Z,75.36
2014-10-02T01:42:56.293Z,75.05
2014-10-02T01:44:00.983Z,74.68
2014-10-02T01:45:05.953Z,75.09
2014-10-02T01:46:10.643Z,75.41
2014-10-02T01:47:15.613Z,75.47
2014-10-02T01:48:20.303Z,75.16
2014-10-02T01:49:25.274Z,75.04
2014-10-02T01:50:30.260Z,75.27
2014-10-02T01:51:34.934Z,75.61
2014-10-02T01:52:39.624Z,75.72
2014-10-02T01:53:44.298Z,75.4
2014-10-02T01:54:48.972Z,75.46
2014-10-02T01:55:53.662Z,75.64
2014-10-02T01:56:58.335Z,75.54
2014-10-02T01:58:03.025Z,75.4
2014-10-02T01:59:07.699Z,75.41
2014-10-02T02:00:12.373Z,75.31
2014-10-02T02:01:17.062Z,75.25
2014-10-02T02:02:21.736Z,75.46
2014-10-02T02:03:26.723Z,75.57
2014-10-02T02:04:31.413Z,75.45
2014-10-02T02:05:36.086Z,75.47
2014-10-02T02:06:40.776Z,75.42
2014-10-02T02:07:45.747Z,75.46
2014-10-02T02:08:50.717Z,75.38
2014-10-02T02:09:55.408Z,75.23
2014-10-02T02:11:00.081Z,75.15
2014-10-02T02:12:04.770Z,75.28
2014-10-02T02:13:09.444Z,75.4
2014-10-02T02:14:14.431Z,75.17
2014-10-02T02:15:19.105Z,75.12
2014-10-02T02:16:23.795Z,75.47
2014-10-02T02:17:28.468Z,75.44
2014-10-02T02:18:33.158Z,75.11
2014-10-02T02:19:37.832Z,75.32
2014-10-02T02:20:41.881Z,75.24
2014-10-02T02:21:46.571Z,75.15
2014-10-02T02:22:51.244Z,75.11
2014-10-02T02:23:55.918Z,75.2
2014-10-02T02:25:00.607Z,75.07
2014-10-02T02:26:05.282Z,75.3
2014-10-02T02:27:09.972Z,75.32
2014-10-02T02:28:14.645Z,74.29
2014-10-02T02:29:19.335Z,73.17
2014-10-02T02:30:24.009Z,73.05
2014-10-02T02:31:28.699Z,72.97
2014-10-02T02:32:33.372Z,72.3
2014-10-02T02:33:38.656Z,71.15
2014-10-02T02:34:43.330Z,71.57
2014-10-02T02:35:48.316Z,71.53
2014-10-02T02:36:52.990Z,72.13
2014-10-02T02:37:57.679Z,73.35
2014-10-02T02:39:02.353Z,73.76
2014-10-02T02:40:07.043Z,72.77
2014-10-02T02:41:12.014Z,72.29
2014-10-02T02:42:16.703Z,73.36
2014-10-02T02:43:21.377Z,73.94
2014-10-02T02:44:26.066Z,74.14
2014-10-02T02:45:30.741Z,74.66
2014-10-02T02:46:35.431Z,74.44
2014-10-02T02:47:40.105Z,73.77
2014-10-02T02:48:44.778Z,72.98
2014-10-02T02:49:49.765Z,72.86
2014-10-02T02:50:54.439Z,72.4
2014-10-02T02:51:59.129Z,72.37
2014-10-02T02:53:03.802Z,73.47
2014-10-02T02:54:08.789Z,74.68
2014-10-02T02:55:13.463Z,74.83
2014-10-02T02:56:18.450Z,74.67
2014-10-02T02:57:23.124Z,74.59
2014-10-02T02:58:27.797Z,74.6
2014-10-02T02:59:32.503Z,74.77
2014-10-02T03:00:37.176Z,75.26
2014-10-02T03:01:41.866Z,75.37
2014-10-02T03:02:46.540Z,75.28
2014-10-02T03:03:51.229Z,75.41
2014-10-02T03:04:55.919Z,75.33
2014-10-02T03:06:00.890Z,75.13
2014-10-02T03:07:05.580Z,75
2014-10-02T03:08:10.253Z,75.4
2014-10-02T03:09:14.927Z,75.43
2014-10-02T03:10:19.616Z,75.26
2014-10-02T03:11:24.291Z,75.3
2014-10-02T03:12:28.980Z,75.72
2014-10-02T03:13:33.951Z,76.11
2014-10-02T03:14:38.641Z,76.14
2014-10-02T03:15:43.611Z,76.56
2014-10-02T03:16:48.301Z,77.01
2014-10-02T03:17:53.272Z,76.94
2014-10-02T03:18:57.961Z,76.51
2014-10-02T03:20:02.635Z,76.33
2014-10-02T03:21:07.325Z,76.31
2014-10-02T03:22:11.999Z,76.85
2014-10-02T03:23:16.985Z,77.07
2014-10-02T03:24:21.659Z,77.19
2014-10-02T03:25:26.646Z,77.4
2014-10-02T03:26:31.320Z,77.54
2014-10-02T03:27:36.307Z,77.4
2014-10-02T03:28:40.980Z,77.31
2014-10-02T03:29:45.670Z,77.12
2014-10-02T03:30:50.343Z,76.9
2014-10-02T03:31:55.330Z,77.04
2014-10-02T03:33:00.004Z,77.03
2014-10-02T03:34:04.694Z,77.08
2014-10-02T03:35:09.367Z,76.81
2014-10-02T03:36:14.041Z,76.62
2014-10-02T03:37:19.325Z,76.75
2014-10-02T03:38:24.015Z,76.84
2014-10-02T03:39:28.688Z,76.83
2014-10-02T03:40:33.377Z,76.68
2014-10-02T03:41:38.349Z,76.88
2014-10-02T03:42:43.039Z,77.09
2014-10-02T03:43:47.713Z,76.84
2014-10-02T03:44:52.402Z,76.95
2014-10-02T03:45:57.092Z,76.93
2014-10-02T03:47:01.765Z,77.02
2014-10-02T03:48:06.455Z,77.11
2014-10-02T03:49:11.129Z,77.02
2014-10-02T03:50:16.115Z,77.26
2014-10-02T03:51:20.789Z,77.48
2014-10-02T03:52:25.494Z,77.27
2014-10-02T03:53:30.199Z,77.42
2014-10-02T03:54:34.873Z,77.78
2014-10-02T03:55:39.563Z,77.84
2014-10-02T03:56:44.534Z,77.85
2014-10-02T03:57:48.536Z,77.99
2014-10-02T03:58:53.226Z,77.73
2014-10-02T03:59:57.914Z,77.87
2014-10-02T04:01:02.589Z,77.87
2014-10-02T04:02:07.279Z,77.77
2014-10-02T04:03:11.952Z,77.48
2014-10-02T04:04:16.642Z,77.37
2014-10-02T04:05:21.316Z,77.42
2014-10-02T04:06:25.990Z,77.42
2014-10-02T04:07:30.680Z,77.33
2014-10-02T04:08:35.963Z,77.51
2014-10-02T04:09:40.638Z,77.65
2014-10-02T04:10:45.327Z,77.45
2014-10-02T04:11:50.000Z,77.22
2014-10-02T04:12:54.689Z,76.97
2014-10-02T04:13:59.974Z,76.75
2014-10-02T04:15:04.648Z,76.77
2014-10-02T04:16:09.337Z,76.67
2014-10-02T04:17:14.011Z,76.49
2014-10-02T04:18:18.700Z,76.51
2014-10-02T04:19:23.687Z,76.31
2014-10-02T04:20:28.376Z,76.2
2014-10-02T04:21:33.050Z,76.4
2014-10-02T04:22:37.740Z,76.39
2014-10-02T04:23:42.415Z,76.02
2014-10-02T04:24:47.104Z,75.95
2014-10-02T04:25:51.777Z,76.06
2014-10-02T04:26:56.483Z,76.32
2014-10-02T04:28:01.453Z,75.97
2014-10-02T04:29:06.440Z,75.67
2014-10-02T04:30:11.427Z,75.77
2014-10-02T04:31:16.100Z,76.22
2014-10-02T04:32:20.790Z,76.35
2014-10-02T04:33:25.479Z,76.47
2014-10-02T04:34:30.153Z,76.46
2014-10-02T04:35:34.843Z,76.18
2014-10-02T04:36:39.517Z,75.42
2014-10-02T04:37:44.206Z,75.15
2014-10-02T04:38:48.880Z,75.31
2014-10-02T04:39:53.586Z,75.55
2014-10-02T04:40:58.259Z,75.65
2014-10-02T04:42:03.245Z,75.46
2014-10-02T04:43:07.920Z,75.52
2014-10-02T04:44:12.624Z,75.57
2014-10-02T04:45:17.299Z,75.73
2014-10-02T04:46:22.582Z,75.6
2014-10-02T04:47:27.272Z,75.61
2014-10-02T04:48:31.946Z,75.71
2014-10-02T04:49:36.932Z,75.89
2014-10-02T04:50:41.606Z,76.09
2014-10-02T04:51:46.593Z,76.04
2014-10-02T04:52:51.267Z,75.88
2014-10-02T04:53:55.956Z,75.83
2014-10-02T04:55:00.630Z,75.74
2014-10-02T04:56:05.320Z,75.73
2014-10-02T04:57:10.010Z,75.79
2014-10-02T04:58:14.683Z,75.91
2014-10-02T04:59:19.373Z,76.03
2014-10-02T05:00:24.047Z,76.24
2014-10-02T05:01:29.033Z,76.62
2014-10-02T05:02:33.707Z,76.74
2014-10-02T05:03:38.381Z,76.86
2014-10-02T05:04:43.071Z,76.82
2014-10-02T05:05:47.761Z,76.95
2014-10-02T05:06:52.481Z,77.21
2014-10-02T05:07:57.155Z,77.36
2014-10-02T05:09:01.829Z,77.27
2014-10-02T05:10:06.518Z,77.22
2014-10-02T05:11:11.208Z,76.83
2014-10-02T05:12:15.883Z,77.07
2014-10-02T05:13:20.556Z,76.76
2014-10-02T05:14:25.557Z,76.63
2014-10-02T05:15:30.232Z,76.48
2014-10-02T05:16:34.936Z,76.77
2014-10-02T05:17:39.611Z,76.8
2014-10-02T05:18:44.301Z,77.25
2014-10-02T05:19:48.975Z,77.11
2014-10-02T05:20:53.961Z,76.96
2014-10-02T05:21:58.635Z,76.71
2014-10-02T05:23:03.325Z,76.69
2014-10-02T05:24:07.998Z,76.71
2014-10-02T05:25:12.688Z,76.41
2014-10-02T05:26:17.675Z,76.42
2014-10-02T05:27:22.645Z,76.51
2014-10-02T05:28:27.631Z,76.65
2014-10-02T05:29:32.306Z,76.65
2014-10-02T05:30:36.996Z,76.7
2014-10-02T05:31:41.670Z,76.45
2014-10-02T05:32:46.375Z,76.17
2014-10-02T05:33:51.064Z,76
2014-10-02T05:34:55.738Z,76.08
2014-10-02T05:36:00.412Z,75.93
2014-10-02T05:37:05.101Z,76.04
2014-10-02T05:38:10.072Z,76.13
2014-10-02T05:39:14.762Z,76.31
2014-10-02T05:40:19.437Z,76.19
2014-10-02T05:41:24.110Z,75.88
2014-10-02T05:42:28.799Z,75.76
2014-10-02T05:43:33.473Z,75.93
2014-10-02T05:44:38.147Z,75.89
2014-10-02T05:45:42.837Z,75.97
2014-10-02T05:46:47.511Z,76.44
2014-10-02T05:47:52.482Z,76.77
2014-10-02T05:48:57.468Z,76.7
2014-10-02T05:50:02.142Z,76.99
2014-10-02T05:51:07.425Z,77.02
2014-10-02T05:52:12.099Z,76.99
2014-10-02T05:53:16.773Z,77.87
2014-10-02T05:54:21.447Z,78.21
2014-10-02T05:55:26.137Z,78.27
2014-10-02T05:56:30.811Z,78.05
2014-10-02T05:57:35.501Z,77.49
2014-10-02T05:58:40.174Z,77.11
2014-10-02T05:59:45.458Z,76.68
2014-10-02T06:00:50.146Z,76.95
2014-10-02T06:01:54.821Z,75.54
2014-10-02T06:02:59.495Z,74.87
2014-10-02T06:04:04.185Z,75.35
2014-10-02T06:05:09.155Z,75.2
2014-10-02T06:06:14.142Z,75.13
2014-10-02T06:07:18.128Z,75.67
2014-10-02T06:08:22.818Z,75.92
2014-10-02T06:09:27.493Z,76.05
2014-10-02T06:10:32.166Z,76.23
2014-10-02T06:11:36.856Z,76.27
2014-10-02T06:12:41.544Z,76.38
2014-10-02T06:13:46.219Z,76.45
2014-10-02T06:14:50.909Z,76.42
2014-10-02T06:15:55.582Z,76.9
2014-10-02T06:17:00.600Z,77.27
2014-10-02T06:18:05.274Z,77.66
2014-10-02T06:19:10.245Z,77.93
2014-10-02T06:20:14.934Z,77.97
2014-10-02T06:21:19.905Z,78.34
2014-10-02T06:22:24.595Z,78.53
2014-10-02T06:23:29.270Z,78.69
2014-10-02T06:24:33.943Z,78.65
2014-10-02T06:25:38.632Z,78.73
2014-10-02T06:26:43.603Z,78.88
2014-10-02T06:27:48.293Z,79.41
2014-10-02T06:28:52.967Z,79
2014-10-02T06:29:57.641Z,79.24
2014-10-02T06:31:02.314Z,79.16
2014-10-02T06:32:07.003Z,79.4
2014-10-02T06:33:11.678Z,78.98
2014-10-02T06:34:16.352Z,79.37
2014-10-02T06:35:21.042Z,79.36
2014-10-02T06:36:25.715Z,78.8
2014-10-02T06:37:30.405Z,78.57
2014-10-02T06:38:35.079Z,79.08
2014-10-02T06:39:39.753Z,78.88
2014-10-02T06:40:44.443Z,79.41
2014-10-02T06:41:49.413Z,79.44
2014-10-02T06:42:54.102Z,79.45
2014-10-02T06:43:59.074Z,79.25
2014-10-02T06:45:03.764Z,79.51
2014-10-02T06:46:08.438Z,79.17
2014-10-02T06:47:13.424Z,79.39
2014-10-02T06:48:18.098Z,79.7
2014-10-02T06:49:22.772Z,79.98
2014-10-02T06:50:27.461Z,80.18
2014-10-02T06:51:32.135Z,80.14
2014-10-02T06:52:36.825Z,80.04
2014-10-02T06:53:41.499Z,79.68
2014-10-02T06:54:46.189Z,79.71
2014-10-02T06:55:50.862Z,79.52
2014-10-02T06:56:55.551Z,79.89
2014-10-02T06:58:00.242Z,80.37
2014-10-02T06:59:04.321Z,80.57
2014-10-02T07:00:08.995Z,80.15
2014-10-02T07:01:13.669Z,80.01
2014-10-02T07:02:18.359Z,79.92
2014-10-02T07:03:23.033Z,79.53
2014-10-02T07:04:27.723Z,79.69
2014-10-02T07:05:32.412Z,79.98
2014-10-02T07:06:37.086Z,79.92
2014-10-02T07:07:41.775Z,79.99
2014-10-02T07:08:46.449Z,79.76
2014-10-02T07:09:51.420Z,79.38
2014-10-02T07:10:56.406Z,79.44
2014-10-02T07:12:01.081Z,79.64
2014-10-02T07:13:05.771Z,79.56
2014-10-02T07:14:10.742Z,79.27
2014-10-02T07:15:15.431Z,79.87
2014-10-02T07:16:20.105Z,79.99
2014-10-02T07:17:24.778Z,79.49
2014-10-02T07:18:29.467Z,79.09
2014-10-02T07:19:34.439Z,79.09
2014-10-02T07:20:39.129Z,79.06
2014-10-02T07:21:43.802Z,78.97
2014-10-02T07:22:48.476Z,78.29
2014-10-02T07:23:53.166Z,78.33
2014-10-02T07:24:57.855Z,78.77
2014-10-02T07:26:02.529Z,79.12
2014-10-02T07:27:07.203Z,78.92
2014-10-02T07:28:11.894Z,79.31
2014-10-02T07:29:16.567Z,79.37
2014-10-02T10:19:36.960Z,68.45
2014-10-02T10:20:41.680Z,69.18
2014-10-02T10:21:46.666Z,69.29
2014-10-02T10:22:51.668Z,69.54
2014-10-02T10:23:56.357Z,70.18
2014-10-02T10:25:01.063Z,69.33
2014-10-02T10:26:05.753Z,67.57
2014-10-02T10:27:10.754Z,67.28
2014-10-02T10:28:15.460Z,66.38
2014-10-02T10:29:20.165Z,66.96
2014-10-02T10:30:24.870Z,68.57
2014-10-02T10:31:30.153Z,68.41
2014-10-02T10:32:34.874Z,66.86
2014-10-02T10:33:39.564Z,66.96
2014-10-02T10:34:44.269Z,67.1
2014-10-02T10:35:48.957Z,67
2014-10-02T10:36:53.945Z,67.95
2014-10-02T10:37:58.649Z,67.21
2014-10-02T10:39:03.355Z,67.83
2014-10-02T10:40:08.045Z,67.95
2014-10-02T10:41:12.765Z,65.89
2014-10-02T10:42:17.470Z,66.9
2014-10-02T10:43:22.457Z,66.12
2014-10-02T10:44:27.443Z,67.14
2014-10-02T10:45:32.148Z,65.8
2014-10-02T10:46:36.838Z,65.97
2014-10-02T10:47:41.543Z,66.07
2014-10-02T10:48:46.249Z,65.3
2014-10-02T10:49:50.953Z,65.94
2014-10-02T10:50:55.643Z,65.61
2014-10-02T10:52:00.348Z,64.91
2014-10-02T10:53:05.054Z,65.03
2014-10-02T10:54:10.336Z,62.3
2014-10-02T10:55:15.026Z,61.6
2014-10-02T10:56:19.732Z,61.3
2014-10-02T10:57:24.437Z,62.29
2014-10-02T10:58:29.141Z,61.33
2014-10-02T10:59:34.127Z,62.13
2014-10-02T11:00:39.115Z,62.56
2014-10-02T11:01:44.117Z,62.77
2014-10-02T11:02:49.104Z,62.08
2014-10-02T11:03:53.809Z,61.79
2014-10-02T11:04:58.514Z,61.87
2014-10-02T11:06:03.502Z,60.52
2014-10-02T11:07:08.504Z,60.59
2014-10-02T11:08:13.193Z,60.99
2014-10-02T11:09:17.897Z,60.79
2014-10-02T11:10:22.884Z,59.49
2014-10-02T11:11:27.606Z,60.62
2014-10-02T11:12:32.608Z,60.47
2014-10-02T11:13:37.594Z,60.56
2014-10-02T11:14:42.300Z,60.69
2014-10-02T11:15:47.005Z,64.08
2014-10-02T11:16:51.709Z,64.53
2014-10-02T11:17:56.414Z,63.99
2014-10-02T11:19:01.105Z,63.03
2014-10-02T11:20:05.810Z,62.4
2014-10-02T11:21:10.515Z,62.52
2014-10-02T11:22:15.219Z,61.76
2014-10-02T11:23:19.925Z,62.18
2014-10-02T11:24:24.912Z,62.7
2014-10-02T11:25:29.617Z,61.38
2014-10-02T11:26:34.603Z,60.38
2014-10-02T11:27:39.308Z,62.02
2014-10-02T11:28:44.295Z,62.17
2014-10-02T11:29:49.000Z,60.48
2014-10-02T11:30:53.721Z,59.52
2014-10-02T11:31:58.410Z,60.47
2014-10-02T11:33:03.115Z,61.99
2014-10-02T11:34:07.820Z,61.72
2014-10-02T11:35:12.527Z,61.93
2014-10-02T11:36:17.216Z,61.02
2014-10-02T11:37:21.921Z,61.15
2014-10-02T11:38:26.625Z,60.48
2014-10-02T11:39:31.316Z,61.92
2014-10-02T11:40:36.021Z,60.82
2014-10-02T11:41:40.726Z,59.46
2014-10-02T11:42:45.712Z,59.03
2014-10-02T11:43:50.418Z,59.29
2014-10-02T11:44:55.123Z,59.07
2014-10-02T11:45:59.812Z,59.28
2014-10-02T11:47:04.517Z,59.84
2014-10-02T11:48:09.222Z,60.09
2014-10-02T11:49:13.913Z,60.22
2014-10-02T11:50:18.618Z,60.27
2014-10-02T11:51:23.308Z,60.38
2014-10-02T11:52:28.013Z,58.89
2014-10-02T11:53:32.702Z,58.7
2014-10-02T11:54:37.704Z,58.48
2014-10-02T11:55:42.394Z,57.99
2014-10-02T11:56:47.099Z,58.81
2014-10-02T11:57:51.804Z,57.59
2014-10-02T11:58:56.791Z,57.85
2014-10-02T12:00:01.495Z,57.88
2014-10-02T12:01:06.779Z,56.78
2014-10-02T12:02:11.469Z,57.23
2014-10-02T12:03:16.173Z,57.93
2014-10-02T12:04:20.878Z,56.84
2014-10-02T12:05:25.585Z,55.97
2014-10-02T12:06:30.290Z,55.66
2014-10-02T12:07:34.979Z,56.55
2014-10-02T12:08:39.981Z,55.61
2014-10-02T12:09:44.686Z,55.86
2014-10-02T12:10:49.391Z,54.79
2014-10-02T12:11:54.097Z,55.77
2014-10-02T12:12:58.786Z,55.9
2014-10-02T12:14:03.492Z,55.24
2014-10-02T12:15:08.196Z,54.91
2014-10-02T12:16:12.901Z,54.5
2014-10-02T12:17:17.591Z,55.15
2014-10-02T12:18:22.594Z,55.74
2014-10-02T12:19:27.299Z,54.5
2014-10-02T12:20:32.004Z,56.2
2014-10-02T12:21:36.708Z,56.68
2014-10-02T12:22:41.413Z,56.62
2014-10-02T12:23:46.104Z,55.5
2014-10-02T12:24:50.809Z,56.68
2014-10-02T12:25:55.514Z,56.45
2014-10-02T12:27:00.204Z,56.49
2014-10-02T12:28:04.909Z,57.33
2014-10-02T12:29:09.614Z,57.2
2014-10-02T12:30:14.336Z,56.74
2014-10-02T12:31:19.055Z,56.92
2014-10-02T12:32:23.761Z,55.14
2014-10-02T12:33:28.466Z,53.4
2014-10-02T12:34:33.172Z,54.57
2014-10-02T12:35:37.190Z,54.9
2014-10-02T12:36:41.895Z,56.29
2014-10-02T12:37:46.600Z,56.14
2014-10-02T12:38:51.305Z,55.54
2014-10-02T12:39:56.010Z,54.84
2014-10-02T12:41:01.012Z,55.44
2014-10-02T12:42:05.716Z,55.53
2014-10-02T12:43:10.454Z,54.75
2014-10-02T12:44:15.159Z,55.56
2014-10-02T12:45:19.880Z,54.96
2014-10-02T12:46:24.585Z,55.58
2014-10-02T12:47:29.290Z,56.98
2014-10-02T12:48:34.011Z,56.57
2014-10-02T12:49:38.716Z,53.94
2014-10-02T12:50:44.000Z,53.82
2014-10-02T12:51:48.720Z,53.43
2014-10-02T12:52:53.440Z,53.82
2014-10-02T12:53:58.146Z,53.18
2014-10-02T12:55:02.866Z,53.43
2014-10-02T12:56:07.571Z,53.43
2014-10-02T12:57:12.590Z,52.76
2014-10-02T12:58:17.295Z,52.15
2014-10-02T12:59:22.000Z,51.86
2014-10-02T13:00:26.721Z,52.51
2014-10-02T13:01:31.427Z,52.17
2014-10-02T13:02:36.131Z,54.37
2014-10-02T13:03:40.899Z,54.29
2014-10-02T13:04:45.886Z,52.53
2014-10-02T13:05:50.590Z,54.96
2014-10-02T13:06:55.296Z,54
2014-10-02T13:08:00.001Z,52.82
2014-10-02T13:09:04.707Z,54.02
2014-10-02T13:10:09.396Z,54.95
2014-10-02T13:11:14.100Z,55.8
2014-10-02T13:12:18.807Z,56.14
2014-10-02T13:13:23.512Z,54.59
2014-10-02T13:14:28.217Z,55.33
2014-10-02T13:15:33.203Z,57.04
2014-10-02T13:16:37.908Z,56.5
2014-10-02T13:17:42.613Z,56.56
2014-10-02T13:18:47.600Z,56.68
2014-10-02T13:19:52.352Z,56.13
2014-10-02T13:20:57.058Z,55.85
2014-10-02T13:22:01.763Z,55.7
2014-10-02T13:23:06.453Z,56
2014-10-02T13:24:11.158Z,56.1
2014-10-02T13:25:15.863Z,56.35
2014-10-02T13:26:20.552Z,55.57
2014-10-02T13:27:25.257Z,55.83
2014-10-02T13:28:30.259Z,55.26
2014-10-02T13:29:35.261Z,55.6
2014-10-02T13:30:39.967Z,55.78
2014-10-02T13:31:44.672Z,54.35
2014-10-02T13:32:49.658Z,54.15
2014-10-02T13:33:54.364Z,53.66
2014-10-02T13:34:59.068Z,53.66
2014-10-02T13:36:03.805Z,53.41
2014-10-02T13:37:08.511Z,53.33
2014-10-02T13:38:13.216Z,53.08
2014-10-02T13:39:17.921Z,54.96
2014-10-02T13:40:22.626Z,54.32
2014-10-02T13:41:27.330Z,53.79
2014-10-02T13:42:32.318Z,53.06
2014-10-02T13:43:37.023Z,53.44
2014-10-02T13:44:42.306Z,53.53
2014-10-02T13:45:47.012Z,54.06
2014-10-02T13:46:51.716Z,53.64
2014-10-02T13:47:56.406Z,53.57
2014-10-02T13:49:01.111Z,53.61
2014-10-02T13:50:06.114Z,53.34
2014-10-02T13:51:10.819Z,52.5
2014-10-02T13:52:15.555Z,54.03
2014-10-02T13:53:20.541Z,53.65
2014-10-02T13:54:25.263Z,53.57
2014-10-02T13:55:29.952Z,53.51
2014-10-02T13:56:34.688Z,53
2014-10-02T13:57:39.378Z,52.91
2014-10-02T13:58:44.083Z,52.61
2014-10-02T13:59:49.085Z,53.68
2014-10-02T14:00:53.776Z,51.11
2014-10-02T14:01:58.480Z,50.22
2014-10-02T14:03:03.185Z,50.77
2014-10-02T14:04:07.890Z,50.77
2014-10-02T14:05:12.612Z,51.18
2014-10-02T14:06:17.598Z,50.82
2014-10-02T14:07:22.303Z,51.76
2014-10-02T14:08:27.054Z,52.69
2014-10-02T14:09:31.745Z,52.07
2014-10-02T14:10:35.761Z,52.94
2014-10-02T14:11:40.452Z,52.82
2014-10-02T14:12:45.173Z,53.1
2014-10-02T14:13:50.159Z,51.77
2014-10-02T14:14:55.161Z,51.76
2014-10-02T14:16:00.147Z,52.52
2014-10-02T14:17:04.852Z,51.8
2014-10-02T14:18:10.151Z,50.7
2014-10-02T14:19:14.841Z,50.01
2014-10-02T14:20:19.547Z,49.66
2014-10-02T14:21:24.860Z,49.36
2014-10-02T14:22:29.566Z,49.79
2014-10-02T14:23:34.272Z,49.27
2014-10-02T14:24:39.024Z,47.84
2014-10-02T14:25:43.729Z,47.65
2014-10-02T14:26:48.434Z,48.41
2014-10-02T14:27:53.139Z,48.66
2014-10-02T14:28:57.844Z,48.98
2014-10-02T14:30:02.549Z,49.26
2014-10-02T14:31:07.239Z,49.14
2014-10-02T14:32:12.241Z,50.26
2014-10-02T14:33:16.946Z,51.32
2014-10-02T14:34:21.651Z,50.72
2014-10-02T14:35:26.638Z,50.01
2014-10-02T14:36:31.343Z,50.92
2014-10-02T14:37:36.049Z,50.1
2014-10-02T14:38:40.754Z,51.7
2014-10-02T14:39:45.474Z,50.67
2014-10-02T14:40:50.180Z,50.39
2014-10-02T14:41:54.885Z,50.97
2014-10-02T14:42:59.574Z,51.06
2014-10-02T14:44:04.279Z,51.85
2014-10-02T14:45:09.281Z,51.62
2014-10-02T14:46:14.299Z,53.35
2014-10-02T14:47:19.005Z,52.62
2014-10-02T14:48:23.694Z,53.39
2014-10-02T14:49:28.399Z,54.25
2014-10-02T14:50:33.105Z,54.19
2014-10-02T14:51:38.107Z,53.24
2014-10-02T14:52:42.812Z,52.75
2014-10-02T14:53:47.517Z,53.32
2014-10-02T14:54:52.221Z,53.48
2014-10-02T14:55:56.926Z,53.82
2014-10-02T14:57:01.633Z,54.23
2014-10-02T14:58:06.338Z,54.5
2014-10-02T14:59:11.340Z,53.77
2014-10-02T15:00:16.030Z,54.69
2014-10-02T15:01:21.032Z,55.38
2014-10-02T15:02:25.736Z,55.43
2014-10-02T15:03:30.723Z,55.41
2014-10-02T15:04:35.443Z,55.27
2014-10-02T15:05:40.149Z,56.2
2014-10-02T15:06:44.854Z,56
2014-10-02T15:07:49.560Z,55.55
2014-10-02T15:08:54.281Z,56.45
2014-10-02T15:09:58.986Z,56.94
2014-10-02T15:11:03.691Z,56.57
2014-10-02T15:12:08.380Z,55.89
2014-10-02T15:13:13.101Z,57.15
2014-10-02T15:14:17.791Z,56.91
2014-10-02T15:15:22.793Z,56.04
2014-10-02T15:16:27.482Z,55.66
2014-10-02T15:17:32.188Z,55.73
2014-10-02T15:18:36.190Z,55.3
2014-10-02T15:19:40.910Z,55
2014-10-02T15:20:45.896Z,55.1
2014-10-02T15:21:50.601Z,54.7
2014-10-02T15:22:55.603Z,55.14
2014-10-02T15:24:00.340Z,55.14
2014-10-02T15:25:05.062Z,54.34
2014-10-02T15:26:09.767Z,54.29
2014-10-02T15:27:13.768Z,54.54
2014-10-02T15:28:18.771Z,54.73
2014-10-02T15:29:23.476Z,54.95
2014-10-02T15:30:28.165Z,54.52
2014-10-02T15:31:32.870Z,54.12
2014-10-02T15:32:37.576Z,54.1
2014-10-02T15:33:42.281Z,55.24
2014-10-02T15:34:46.971Z,55.09
2014-10-02T15:35:51.675Z,55.34
2014-10-02T15:36:56.365Z,54.62
2014-10-02T15:38:01.071Z,54.11
2014-10-02T15:39:05.776Z,53.96
2014-10-02T15:40:10.481Z,53.58
2014-10-02T15:41:15.185Z,53.64
2014-10-02T15:42:19.891Z,53.38
2014-10-02T15:43:24.580Z,53.58
2014-10-02T15:44:29.285Z,54.78
2014-10-02T15:45:33.975Z,54
2014-10-02T15:46:38.978Z,54.16
2014-10-02T15:47:43.963Z,53.64
2014-10-02T15:48:48.670Z,54.17
2014-10-02T15:49:53.375Z,54.63
2014-10-02T15:50:58.377Z,54.25
2014-10-02T15:52:03.081Z,54.15
2014-10-02T15:53:07.786Z,54.97
2014-10-02T15:54:12.492Z,56.66
2014-10-02T15:55:17.198Z,56.31
2014-10-02T15:56:21.903Z,55.98
2014-10-02T15:57:26.591Z,55.38
2014-10-02T15:58:31.297Z,54.74
2014-10-02T15:59:36.299Z,54.16
2014-10-02T16:00:41.005Z,53.88
2014-10-02T16:01:45.710Z,54.29
2014-10-02T16:02:50.415Z,54.18
2014-10-02T16:03:55.402Z,53.6
2014-10-02T16:05:00.404Z,55.25
2014-10-02T16:06:04.405Z,55.67
2014-10-02T16:07:09.110Z,56.05
2014-10-02T16:08:13.815Z,56.45
2014-10-02T16:09:18.521Z,55.59
2014-10-02T16:10:23.242Z,56.99
2014-10-02T16:11:28.228Z,56.82
2014-10-02T16:12:32.949Z,56.63
2014-10-02T16:13:37.655Z,56.21
2014-10-02T16:14:42.657Z,56.85
2014-10-02T16:15:47.362Z,56.42
2014-10-02T16:16:52.051Z,56.99
2014-10-02T16:17:56.756Z,57.19
2014-10-02T16:19:01.461Z,57.35
2014-10-02T16:20:06.151Z,57.37
2014-10-02T16:21:10.965Z,57.02
2014-10-02T16:22:15.671Z,56.65
2014-10-02T16:23:20.377Z,56.75
2014-10-02T16:24:25.066Z,56.78
2014-10-02T16:25:29.770Z,57.64
2014-10-02T16:26:34.476Z,58.09
2014-10-02T16:27:39.166Z,58.33
2014-10-02T16:28:43.870Z,58.02
2014-10-02T16:29:48.576Z,57.75
2014-10-02T16:30:53.281Z,57.96
2014-10-02T16:31:57.971Z,58.5
2014-10-02T16:33:02.676Z,58.18
2014-10-02T16:34:07.662Z,57.94
2014-10-02T16:35:12.664Z,57.97
2014-10-02T16:36:17.354Z,58.16
2014-10-02T16:37:22.355Z,57.77
2014-10-02T16:38:27.044Z,59.14
2014-10-02T16:39:31.749Z,58.72
2014-10-02T16:40:36.455Z,58.3
2014-10-02T16:41:41.160Z,58.48
2014-10-02T16:42:45.866Z,58.35
2014-10-02T16:43:50.852Z,58.5
2014-10-02T16:44:55.557Z,58.47
2014-10-02T16:46:00.278Z,58.77